createdAt,value
2023-02-27T00:00:22.859Z,30.90
2023-02-27T00:02:51.677Z,25.10
2023-02-27T00:05:19.599Z,29.10
2023-02-27T00:07:46.584Z,28.50
2023-02-27T00:10:14.408Z,28.00
2023-02-27T00:12:42.430Z,29.00
2023-02-27T00:15:18.394Z,25.60
2023-02-27T00:17:45.738Z,30.30
2023-02-27T00:20:16.801Z,34.00
2023-02-27T00:22:45.058Z,36.00
2023-02-27T00:25:12.772Z,29.40
2023-02-27T00:27:40.094Z,23.70
2023-02-27T00:30:09.754Z,22.70
2023-02-27T00:32:36.995Z,23.90
2023-02-27T00:35:05.847Z,22.10
2023-02-27T00:37:32.804Z,25.80
2023-02-27T00:39:59.744Z,20.40
2023-02-27T00:42:28.439Z,26.10
2023-02-27T00:44:55.296Z,25.20
2023-02-27T00:47:22.337Z,27.50
2023-02-27T00:49:49.185Z,28.00
2023-02-27T00:52:16.247Z,29.90
2023-02-27T00:54:43.095Z,33.70
2023-02-27T00:57:09.971Z,32.70
2023-02-27T00:59:38.136Z,29.60
2023-02-27T01:02:05.164Z,28.80
2023-02-27T01:04:33.244Z,27.00
2023-02-27T01:07:00.402Z,30.30
2023-02-27T01:09:27.460Z,29.80
2023-02-27T01:11:54.414Z,30.20
2023-02-27T01:14:21.767Z,28.80
2023-02-27T01:16:49.638Z,27.80
2023-02-27T01:19:16.791Z,26.80
2023-02-27T01:21:44.566Z,31.70
2023-02-27T01:24:12.852Z,24.70
2023-02-27T01:26:40.818Z,25.60
2023-02-27T01:29:07.869Z,26.20
2023-02-27T01:31:35.167Z,29.00
2023-02-27T01:34:02.592Z,27.40
2023-02-27T01:36:29.541Z,28.50
2023-02-27T01:38:56.487Z,26.70
2023-02-27T01:41:23.441Z,26.70
2023-02-27T01:44:07.070Z,28.20
2023-02-27T01:46:37.614Z,25.70
2023-02-27T01:49:24.315Z,30.60
2023-02-27T01:52:06.195Z,28.70
2023-02-27T01:54:38.163Z,23.10
2023-02-27T01:57:06.875Z,20.80
2023-02-27T01:59:36.074Z,23.20
2023-02-27T02:02:09.411Z,20.10
2023-02-27T02:04:39.575Z,19.40
2023-02-27T02:07:10.209Z,21.80
2023-02-27T02:09:45.760Z,25.50
2023-02-27T02:12:15.363Z,20.00
2023-02-27T02:14:44.006Z,15.80
2023-02-27T02:17:29.322Z,17.30
2023-02-27T02:19:56.172Z,17.20
2023-02-27T02:22:27.214Z,14.70
2023-02-27T02:25:15.753Z,17.30
2023-02-27T02:27:53.349Z,15.50
2023-02-27T02:30:51.491Z,14.20
2023-02-27T02:34:05.332Z,14.20
2023-02-27T02:36:44.456Z,13.70
2023-02-27T02:44:40.408Z,13.30
2023-02-27T02:47:10.656Z,12.10
2023-02-27T02:49:58.222Z,13.80
2023-02-27T02:52:34.211Z,15.70
2023-02-27T02:55:09.257Z,12.90
2023-02-27T02:57:47.355Z,10.60
2023-02-27T03:00:25.420Z,10.30
2023-02-27T03:02:59.576Z,11.70
2023-02-27T03:05:35.115Z,13.40
2023-02-27T03:08:16.299Z,11.90
2023-02-27T03:10:49.920Z,14.20
2023-02-27T03:13:37.824Z,13.00
2023-02-27T03:17:14.302Z,15.20
2023-02-27T03:19:56.818Z,11.70
2023-02-27T03:22:38.617Z,16.00
2023-02-27T03:25:10.660Z,15.50
2023-02-27T03:28:11.288Z,12.80
2023-02-27T03:30:45.177Z,16.00
2023-02-27T03:33:30.294Z,18.00
2023-02-27T03:36:08.048Z,14.50
2023-02-27T03:38:57.754Z,15.70
2023-02-27T03:41:42.885Z,11.80
2023-02-27T03:44:34.042Z,11.80
2023-02-27T03:47:01.049Z,8.90
2023-02-27T03:49:28.468Z,10.20
2023-02-27T03:51:55.407Z,8.90
2023-02-27T03:54:27.997Z,7.00
2023-02-27T03:57:04.480Z,6.90
2023-02-27T03:59:32.844Z,5.80
2023-02-27T04:02:02.096Z,9.70
2023-02-27T04:04:32.179Z,7.40
2023-02-27T04:07:35.977Z,5.70
2023-02-27T04:10:24.529Z,7.80
2023-02-27T04:13:16.546Z,6.90
2023-02-27T04:15:55.324Z,6.30
2023-02-27T04:18:27.992Z,7.10
2023-02-27T04:21:06.419Z,4.30
2023-02-27T04:23:51.683Z,8.00
2023-02-27T04:26:30.618Z,6.10
2023-02-27T04:29:15.427Z,6.20
2023-02-27T04:31:47.221Z,7.20
2023-02-27T04:34:28.349Z,6.10
2023-02-27T04:36:59.044Z,5.40
2023-02-27T04:39:33.119Z,6.60
2023-02-27T04:42:13.420Z,5.20
2023-02-27T04:44:42.087Z,5.70
2023-02-27T04:47:11.531Z,6.20
2023-02-27T04:49:46.043Z,5.80
2023-02-27T04:52:24.960Z,6.90
2023-02-27T04:55:00.193Z,5.80
2023-02-27T04:57:43.195Z,6.70
2023-02-27T05:00:14.111Z,9.90
2023-02-27T05:02:47.995Z,9.70
2023-02-27T05:05:22.350Z,7.00
2023-02-27T05:07:57.007Z,7.80
2023-02-27T05:10:36.261Z,10.70
2023-02-27T05:13:22.761Z,7.30
2023-02-27T05:17:44.792Z,10.10
2023-02-27T05:20:13.461Z,18.10
2023-02-27T05:22:56.681Z,11.60
2023-02-27T05:25:41.491Z,19.30
2023-02-27T05:28:17.038Z,46.10
2023-02-27T05:30:59.591Z,50.30
2023-02-27T05:33:43.945Z,32.50
2023-02-27T05:36:25.112Z,13.20
2023-02-27T05:38:58.566Z,12.10
2023-02-27T05:41:32.053Z,18.70
2023-02-27T05:44:10.729Z,13.30
2023-02-27T05:46:41.871Z,13.40
2023-02-27T05:49:33.995Z,17.20
2023-02-27T05:52:05.200Z,20.90
2023-02-27T05:54:35.162Z,19.30
2023-02-27T05:57:05.768Z,21.60
2023-02-27T05:59:47.380Z,16.00
2023-02-27T06:02:14.571Z,12.50
2023-02-27T06:04:41.907Z,9.80
2023-02-27T06:07:09.463Z,11.20
2023-02-27T06:09:36.628Z,10.60
2023-02-27T06:12:03.570Z,6.80
2023-02-27T06:14:30.523Z,4.60
2023-02-27T06:16:57.474Z,5.40
2023-02-27T06:19:24.843Z,4.60
2023-02-27T06:21:51.792Z,4.50
2023-02-27T06:24:19.382Z,8.30
2023-02-27T06:26:47.529Z,6.20
2023-02-27T06:29:14.785Z,9.20
2023-02-27T06:31:41.728Z,6.40
2023-02-27T06:34:08.680Z,8.50
2023-02-27T06:36:35.532Z,5.20
2023-02-27T06:39:02.482Z,6.40
2023-02-27T06:41:29.336Z,5.60
2023-02-27T06:43:56.785Z,4.70
2023-02-27T06:46:24.564Z,3.70
2023-02-27T06:48:51.610Z,5.50
2023-02-27T06:51:18.456Z,3.70
2023-02-27T06:53:45.307Z,4.90
2023-02-27T06:56:12.158Z,8.20
2023-02-27T06:58:39.102Z,8.00
2023-02-27T07:01:06.070Z,10.20
2023-02-27T07:03:33.784Z,6.50
2023-02-27T07:06:00.771Z,6.70
2023-02-27T07:08:27.727Z,7.00
2023-02-27T07:10:54.671Z,5.60
2023-02-27T07:13:21.621Z,8.60
2023-02-27T07:15:48.601Z,5.30
2023-02-27T07:18:15.525Z,5.50
2023-02-27T07:20:43.098Z,9.10
2023-02-27T07:23:10.976Z,3.60
2023-02-27T07:25:37.910Z,2.20
2023-02-27T07:28:05.328Z,3.50
2023-02-27T07:30:32.323Z,9.00
2023-02-27T07:32:59.282Z,20.90
2023-02-27T07:35:26.219Z,9.60
2023-02-27T07:37:53.173Z,9.30
2023-02-27T07:40:20.135Z,8.20
2023-02-27T07:42:52.996Z,4.00
2023-02-27T07:45:20.186Z,4.50
2023-02-27T07:47:47.129Z,3.70
2023-02-27T07:50:16.939Z,4.20
2023-02-27T07:52:44.619Z,2.90
2023-02-27T07:55:13.229Z,4.00
2023-02-27T07:57:40.144Z,5.30
2023-02-27T08:00:09.929Z,4.90
2023-02-27T08:02:40.325Z,3.20
2023-02-27T08:05:10.999Z,2.50
2023-02-27T08:07:37.991Z,9.40
2023-02-27T08:10:06.218Z,7.60
2023-02-27T08:12:33.619Z,9.60
2023-02-27T08:15:00.685Z,7.00
2023-02-27T08:17:27.628Z,3.40
2023-02-27T08:19:54.576Z,15.90
2023-02-27T08:22:21.824Z,28.70
2023-02-27T08:24:48.678Z,8.90
2023-02-27T08:27:15.542Z,10.80
2023-02-27T08:29:43.700Z,8.30
2023-02-27T08:32:10.995Z,2.80
2023-02-27T08:34:38.009Z,3.20
2023-02-27T08:37:04.959Z,4.80
2023-02-27T08:39:32.125Z,4.40
2023-02-27T08:41:58.957Z,2.10
2023-02-27T08:44:25.750Z,3.40
2023-02-27T08:46:52.666Z,2.50
2023-02-27T08:49:25.240Z,5.20
2023-02-27T08:54:19.857Z,11.00
2023-02-27T08:56:48.029Z,12.50
2023-02-27T08:59:15.592Z,2.50
2023-02-27T09:01:42.853Z,9.50
2023-02-27T09:04:10.022Z,6.20
2023-02-27T09:06:37.685Z,5.20
2023-02-27T09:09:06.760Z,4.00
2023-02-27T09:11:34.241Z,8.40
2023-02-27T09:14:01.310Z,4.70
2023-02-27T09:16:28.683Z,5.40
2023-02-27T09:18:55.940Z,5.30
2023-02-27T09:21:23.987Z,3.90
2023-02-27T09:23:53.283Z,4.50
2023-02-27T09:26:21.681Z,2.60
2023-02-27T09:28:50.269Z,2.70
2023-02-27T09:31:18.001Z,4.40
2023-02-27T09:33:45.087Z,7.00
2023-02-27T09:36:12.461Z,12.30
2023-02-27T09:38:41.318Z,9.00
2023-02-27T09:41:27.519Z,3.30
2023-02-27T09:43:54.987Z,2.60
2023-02-27T09:46:25.823Z,2.60
2023-02-27T09:49:01.437Z,2.10
2023-02-27T09:51:29.922Z,2.40
2023-02-27T09:54:02.439Z,2.10
2023-02-27T09:56:40.751Z,2.30
2023-02-27T09:59:36.276Z,3.80
2023-02-27T10:02:08.753Z,6.40
2023-02-27T10:05:04.838Z,5.20
2023-02-27T10:07:53.178Z,3.50
2023-02-27T10:10:37.736Z,7.00
2023-02-27T10:13:28.847Z,19.30
2023-02-27T10:15:57.405Z,24.40
2023-02-27T10:18:33.645Z,17.70
2023-02-27T10:21:06.987Z,22.80
2023-02-27T10:23:56.753Z,18.50
2023-02-27T10:26:31.368Z,11.00
2023-02-27T10:29:02.943Z,5.80
2023-02-27T10:31:33.904Z,5.50
2023-02-27T10:34:01.958Z,5.40
2023-02-27T10:36:34.166Z,6.40
2023-02-27T10:39:07.047Z,6.70
2023-02-27T10:41:36.647Z,4.00
2023-02-27T10:44:04.103Z,4.10
2023-02-27T10:46:35.963Z,4.80
2023-02-27T10:49:13.792Z,3.90
2023-02-27T10:51:40.908Z,2.50
2023-02-27T10:54:19.919Z,3.40
2023-02-27T10:56:56.850Z,3.90
2023-02-27T10:59:38.744Z,7.50
2023-02-27T11:02:18.034Z,6.10
2023-02-27T11:04:55.413Z,8.90
2023-02-27T11:07:36.540Z,7.50
2023-02-27T11:10:15.807Z,9.90
2023-02-27T11:12:57.201Z,7.30
2023-02-27T11:15:27.313Z,18.30
2023-02-27T11:17:55.392Z,19.90
2023-02-27T11:20:39.741Z,24.60
2023-02-27T11:23:18.268Z,36.70
2023-02-27T11:25:45.377Z,9.40
2023-02-27T11:28:14.245Z,10.30
2023-02-27T11:30:43.954Z,6.40
2023-02-27T11:33:19.199Z,5.40
2023-02-27T11:35:57.856Z,9.00
2023-02-27T11:38:31.551Z,6.00
2023-02-27T11:41:04.453Z,6.70
2023-02-27T11:43:49.428Z,5.00
2023-02-27T11:46:47.295Z,6.20
2023-02-27T11:49:35.139Z,7.70
2023-02-27T11:52:17.887Z,57.10
2023-02-27T11:54:58.102Z,21.50
2023-02-27T11:57:39.566Z,15.60
2023-02-27T12:00:20.023Z,15.00
2023-02-27T12:02:56.051Z,6.40
2023-02-27T12:05:30.871Z,8.90
2023-02-27T12:08:05.991Z,29.40
2023-02-27T12:10:48.556Z,24.70
2023-02-27T12:13:21.660Z,14.10
2023-02-27T12:16:09.261Z,21.60
2023-02-27T12:18:45.140Z,21.50
2023-02-27T12:21:16.875Z,7.70
2023-02-27T12:23:50.051Z,11.70
2023-02-27T12:26:30.002Z,14.00
2023-02-27T12:29:09.608Z,39.60
2023-02-27T12:31:45.016Z,33.60
2023-02-27T12:34:12.268Z,15.70
2023-02-27T12:36:39.401Z,6.10
2023-02-27T12:39:15.440Z,11.50
2023-02-27T12:42:20.697Z,6.00
2023-02-27T12:44:56.541Z,7.00
2023-02-27T12:47:28.906Z,13.40
2023-02-27T12:50:24.201Z,11.30
2023-02-27T12:53:10.092Z,6.80
2023-02-27T12:55:49.736Z,7.50
2023-02-27T12:58:38.589Z,5.60
2023-02-27T13:01:22.095Z,4.50
2023-02-27T13:03:59.814Z,8.90
2023-02-27T13:07:05.880Z,11.00
2023-02-27T13:09:56.195Z,39.50
2023-02-27T13:12:48.521Z,9.50
2023-02-27T13:15:15.434Z,6.00
2023-02-27T13:17:55.124Z,8.70
2023-02-27T13:20:21.924Z,7.40
2023-02-27T13:22:53.374Z,7.70
2023-02-27T13:25:21.466Z,9.30
2023-02-27T13:27:54.313Z,8.30
2023-02-27T13:30:27.743Z,7.50
2023-02-27T13:33:16.180Z,7.50
2023-02-27T13:35:46.102Z,6.10
2023-02-27T13:41:28.433Z,12.10
2023-02-27T13:43:57.196Z,11.90
2023-02-27T13:46:31.776Z,12.10
2023-02-27T13:49:05.092Z,13.00
2023-02-27T13:51:35.116Z,10.90
2023-02-27T13:54:14.545Z,9.40
2023-02-27T13:57:07.700Z,11.40
2023-02-27T13:59:42.456Z,13.00
2023-02-27T14:02:12.638Z,14.00
2023-02-27T14:04:49.705Z,14.70
2023-02-27T14:07:26.705Z,13.80
2023-02-27T14:10:11.682Z,14.60
2023-02-27T14:12:46.399Z,9.90
2023-02-27T14:15:23.048Z,11.70
2023-02-27T14:18:09.276Z,12.00
2023-02-27T14:20:39.414Z,9.60
2023-02-27T14:23:15.230Z,10.50
2023-02-27T14:25:51.698Z,8.70
2023-02-27T14:28:44.742Z,10.20
2023-02-27T14:31:28.789Z,8.80
2023-02-27T14:34:05.247Z,9.50
2023-02-27T14:36:39.775Z,14.80
2023-02-27T14:39:07.037Z,14.50
2023-02-27T14:42:02.037Z,14.50
2023-02-27T14:44:37.671Z,79.80
2023-02-27T14:47:05.953Z,88.40
2023-02-27T14:49:36.218Z,21.30
2023-02-27T14:52:22.040Z,9.90
2023-02-27T14:54:50.451Z,8.80
2023-02-27T14:57:26.681Z,7.30
2023-02-27T14:59:55.221Z,14.50
2023-02-27T15:02:25.117Z,24.60
2023-02-27T15:05:01.408Z,25.90
2023-02-27T15:07:34.270Z,13.70
2023-02-27T15:10:05.178Z,13.20
2023-02-27T15:12:37.889Z,13.90
2023-02-27T15:15:10.366Z,18.10
2023-02-27T15:17:40.700Z,13.80
2023-02-27T15:20:38.254Z,15.10
2023-02-27T15:23:28.831Z,11.80
2023-02-27T15:25:58.445Z,18.90
2023-02-27T15:28:37.775Z,14.10
2023-02-27T15:31:07.479Z,13.20
2023-02-27T15:33:34.757Z,9.80
2023-02-27T15:36:02.218Z,8.70
2023-02-27T15:38:31.218Z,14.60
2023-02-27T15:41:00.008Z,22.30
2023-02-27T15:43:28.957Z,23.60
2023-02-27T15:45:58.497Z,20.00
2023-02-27T15:48:26.287Z,23.10
2023-02-27T15:51:02.391Z,19.50
2023-02-27T15:53:34.189Z,24.60
2023-02-27T15:56:06.373Z,47.20
2023-02-27T15:58:46.993Z,33.00
2023-02-27T16:01:19.930Z,11.00
2023-02-27T16:03:49.662Z,11.90
2023-02-27T16:06:20.635Z,16.80
2023-02-27T16:09:01.536Z,16.20
2023-02-27T16:11:31.435Z,14.60
2023-02-27T16:13:58.506Z,14.00
2023-02-27T16:16:36.436Z,14.90
2023-02-27T16:19:22.745Z,20.00
2023-02-27T16:22:16.677Z,24.40
2023-02-27T16:24:44.662Z,35.30
2023-02-27T16:27:16.957Z,46.00
2023-02-27T16:29:45.612Z,39.70
2023-02-27T16:32:32.797Z,131.80
2023-02-27T16:35:08.353Z,67.10
2023-02-27T16:37:38.375Z,56.60
2023-02-27T16:40:22.989Z,61.90
2023-02-27T16:42:51.429Z,77.40
2023-02-27T16:45:21.995Z,42.30
2023-02-27T16:47:50.547Z,12.50
2023-02-27T16:50:41.530Z,8.40
2023-02-27T16:53:09.194Z,12.10
2023-02-27T16:55:40.153Z,14.40
2023-02-27T16:58:07.314Z,7.20
2023-02-27T17:00:35.292Z,7.80
2023-02-27T17:03:02.438Z,5.80
2023-02-27T17:05:29.582Z,14.50
2023-02-27T17:07:56.549Z,25.10
2023-02-27T17:10:24.813Z,17.40
2023-02-27T17:12:52.361Z,14.20
2023-02-27T17:15:20.381Z,13.90
2023-02-27T17:17:47.409Z,15.50
2023-02-27T17:20:15.237Z,24.20
2023-02-27T17:22:44.427Z,23.80
2023-02-27T17:25:12.564Z,25.70
2023-02-27T17:27:41.756Z,20.10
2023-02-27T17:30:09.753Z,19.30
2023-02-27T17:32:36.891Z,16.80
2023-02-27T17:35:04.555Z,16.10
2023-02-27T17:37:31.821Z,19.60
2023-02-27T17:39:59.052Z,30.80
2023-02-27T17:42:26.435Z,38.70
2023-02-27T17:44:53.890Z,28.70
2023-02-27T17:47:21.169Z,26.30
2023-02-27T17:49:48.554Z,23.70
2023-02-27T17:52:15.973Z,38.00
2023-02-27T17:54:43.046Z,30.90
2023-02-27T17:57:12.240Z,23.20
2023-02-27T17:59:40.777Z,12.50
2023-02-27T18:02:10.325Z,14.30
2023-02-27T18:04:37.495Z,13.30
2023-02-27T18:07:04.645Z,9.50
2023-02-27T18:09:32.148Z,10.30
2023-02-27T18:11:59.149Z,12.00
2023-02-27T18:14:26.614Z,15.80
2023-02-27T18:16:53.878Z,14.60
2023-02-27T18:19:20.922Z,18.40
2023-02-27T18:21:47.970Z,33.00
2023-02-27T18:24:18.301Z,38.50
2023-02-27T18:26:45.801Z,35.20
2023-02-27T18:29:14.314Z,32.80
2023-02-27T18:31:46.703Z,31.00
2023-02-27T18:34:14.005Z,46.70
2023-02-27T18:36:41.045Z,64.30
2023-02-27T18:39:09.120Z,80.30
2023-02-27T18:41:37.275Z,132.60
2023-02-27T18:44:05.384Z,108.80
2023-02-27T18:46:33.389Z,104.50
2023-02-27T18:49:01.320Z,94.60
2023-02-27T18:51:29.298Z,66.10
2023-02-27T18:53:57.062Z,63.60
2023-02-27T18:56:25.711Z,59.10
2023-02-27T18:58:54.054Z,46.50
2023-02-27T19:01:25.580Z,32.30
2023-02-27T19:04:00.669Z,50.10
2023-02-27T19:06:28.489Z,25.80
2023-02-27T19:08:56.053Z,32.70
2023-02-27T19:11:33.393Z,26.40
2023-02-27T19:14:02.882Z,28.90
2023-02-27T19:16:30.665Z,48.30
2023-02-27T19:19:00.028Z,41.60
2023-02-27T19:21:27.778Z,19.80
2023-02-27T19:23:54.846Z,13.70
2023-02-27T19:26:23.458Z,7.60
2023-02-27T19:28:55.124Z,9.00
2023-02-27T19:31:24.582Z,24.80
2023-02-27T19:33:51.865Z,26.80
2023-02-27T19:36:21.218Z,19.40
2023-02-27T19:38:48.517Z,30.60
2023-02-27T19:41:19.467Z,36.80
2023-02-27T19:43:47.646Z,29.00
2023-02-27T19:46:18.332Z,29.20
2023-02-27T19:48:45.637Z,22.90
2023-02-27T19:51:14.659Z,31.90
2023-02-27T19:53:46.108Z,49.00
2023-02-27T19:56:16.250Z,29.00
2023-02-27T19:58:44.313Z,26.20
2023-02-27T20:01:12.661Z,46.30
2023-02-27T20:03:43.810Z,27.60
2023-02-27T20:06:23.348Z,26.70
2023-02-27T20:08:51.019Z,44.50
2023-02-27T20:11:20.000Z,57.20
2023-02-27T20:13:48.649Z,55.30
2023-02-27T20:16:19.592Z,47.80
2023-02-27T20:18:46.714Z,42.20
2023-02-27T20:21:17.101Z,44.10
2023-02-27T20:23:45.639Z,37.20
2023-02-27T20:26:22.692Z,17.60
2023-02-27T20:28:52.303Z,9.60
2023-02-27T20:31:22.227Z,6.20
2023-02-27T20:33:50.603Z,10.70
2023-02-27T20:36:17.969Z,24.40
2023-02-27T20:38:45.440Z,31.90
2023-02-27T20:41:18.162Z,34.00
2023-02-27T20:43:45.780Z,38.80
2023-02-27T20:46:19.432Z,98.40
2023-02-27T20:48:50.859Z,99.80
2023-02-27T20:51:22.958Z,36.50
2023-02-27T20:53:53.505Z,34.20
2023-02-27T20:56:26.709Z,34.80
2023-02-27T20:58:54.819Z,42.10
2023-02-27T21:01:22.388Z,55.10
2023-02-27T21:03:52.326Z,124.30
2023-02-27T21:06:20.406Z,73.30
2023-02-27T21:08:49.678Z,68.20
2023-02-27T21:11:23.782Z,48.30
2023-02-27T21:13:51.042Z,57.80
2023-02-27T21:16:20.736Z,67.70
2023-02-27T21:21:25.505Z,74.00
2023-02-27T21:23:52.991Z,69.50
2023-02-27T21:26:27.706Z,60.60
2023-02-27T21:29:07.962Z,64.30
2023-02-27T21:31:37.041Z,43.80
2023-02-27T21:34:07.338Z,35.40
2023-02-27T21:36:42.602Z,37.50
2023-02-27T21:39:13.356Z,59.40
2023-02-27T21:41:41.581Z,51.70
2023-02-27T21:44:12.025Z,89.20
2023-02-27T21:46:39.226Z,79.00
2023-02-27T21:49:06.986Z,51.50
2023-02-27T21:51:40.358Z,89.70
2023-02-27T21:54:10.753Z,114.10
2023-02-27T21:59:05.939Z,102.10
2023-02-27T22:01:33.964Z,96.60
2023-02-27T22:04:02.196Z,112.00
2023-02-27T22:06:34.179Z,146.50
2023-02-27T22:09:05.133Z,162.10
2023-02-27T22:11:34.251Z,169.50
2023-02-27T22:14:01.990Z,120.50
2023-02-27T22:16:29.041Z,117.90
2023-02-27T22:18:56.066Z,107.60
2023-02-27T22:21:25.520Z,115.60
2023-02-27T22:23:53.285Z,122.20
2023-02-27T22:26:24.455Z,148.20
2023-02-27T22:28:53.631Z,142.40
2023-02-27T22:31:25.681Z,173.60
2023-02-27T22:33:55.642Z,174.90
2023-02-27T22:36:25.872Z,131.20
2023-02-27T22:38:53.276Z,114.20
2023-02-27T22:41:23.759Z,104.60
2023-02-27T22:43:51.494Z,105.60
2023-02-27T22:46:28.396Z,101.90
2023-02-27T22:49:01.824Z,85.00
2023-02-27T22:51:30.700Z,75.90
2023-02-27T22:54:00.342Z,78.60
2023-02-27T22:56:28.232Z,74.30
2023-02-27T22:58:55.389Z,70.60
2023-02-27T23:01:26.666Z,69.40
2023-02-27T23:03:56.760Z,73.40
2023-02-27T23:06:27.081Z,70.80
2023-02-27T23:08:54.446Z,78.70
2023-02-27T23:11:22.003Z,95.20
2023-02-27T23:13:50.394Z,117.90
2023-02-27T23:16:17.719Z,133.10
2023-02-27T23:18:51.198Z,116.10
2023-02-27T23:21:20.546Z,123.50
2023-02-27T23:23:48.035Z,106.70
2023-02-27T23:26:14.986Z,101.40
2023-02-27T23:28:42.946Z,101.70
2023-02-27T23:31:10.201Z,92.80
2023-02-27T23:33:37.456Z,85.10
2023-02-27T23:36:04.967Z,78.80
2023-02-27T23:38:32.382Z,73.80
2023-02-27T23:41:09.694Z,70.60
2023-02-27T23:43:36.924Z,55.60
2023-02-27T23:46:14.707Z,58.90
2023-02-27T23:48:42.636Z,62.40
2023-02-27T23:51:11.747Z,59.00
2023-02-27T23:53:40.589Z,61.80
2023-02-27T23:56:26.358Z,68.80
2023-02-27T23:58:59.020Z,81.70
